createdAt,value
2023-02-12T00:01:48.769Z,9.75
2023-02-12T00:04:16.492Z,9.60
2023-02-12T00:06:42.982Z,10.08
2023-02-12T00:09:09.465Z,9.88
2023-02-12T00:11:36.030Z,10.15
2023-02-12T00:14:03.144Z,10.84
2023-02-12T00:16:29.734Z,9.97
2023-02-12T00:18:57.449Z,10.73
2023-02-12T00:21:24.473Z,10.11
2023-02-12T00:23:50.966Z,10.07
2023-02-12T00:26:20.406Z,9.91
2023-02-12T00:28:47.175Z,10.12
2023-02-12T00:31:18.162Z,10.57
2023-02-12T00:33:44.823Z,10.31
2023-02-12T00:36:17.344Z,10.54
2023-02-12T00:38:44.727Z,10.04
2023-02-12T00:41:11.877Z,10.80
2023-02-12T00:43:38.570Z,10.81
2023-02-12T00:46:05.588Z,11.23
2023-02-12T00:48:32.097Z,9.86
2023-02-12T00:50:58.786Z,10.52
2023-02-12T00:53:25.457Z,10.61
2023-02-12T00:55:52.061Z,10.64
2023-02-12T00:58:19.139Z,10.07
2023-02-12T01:00:45.882Z,11.11
2023-02-12T01:03:12.316Z,11.13
2023-02-12T01:05:38.726Z,10.52
2023-02-12T01:08:05.654Z,10.68
2023-02-12T01:10:32.559Z,10.63
2023-02-12T01:12:58.987Z,10.70
2023-02-12T01:15:25.418Z,10.80
2023-02-12T01:17:53.166Z,10.73
2023-02-12T01:20:22.007Z,11.05
2023-02-12T01:22:48.535Z,10.05
2023-02-12T01:25:14.998Z,10.03
2023-02-12T01:27:41.478Z,10.29
2023-02-12T01:30:10.990Z,11.16
2023-02-12T01:32:38.239Z,10.61
2023-02-12T01:35:05.532Z,10.25
2023-02-12T01:37:35.511Z,10.31
2023-02-12T01:40:02.100Z,10.24
2023-02-12T01:42:28.616Z,10.65
2023-02-12T01:45:30.381Z,10.09
2023-02-12T01:48:00.617Z,10.39
2023-02-12T01:50:27.195Z,10.31
2023-02-12T01:52:57.177Z,10.49
2023-02-12T01:55:24.686Z,10.31
2023-02-12T01:57:51.472Z,10.60
2023-02-12T02:00:20.352Z,10.10
2023-02-12T02:02:51.368Z,10.47
2023-02-12T02:05:26.774Z,11.13
2023-02-12T02:07:54.047Z,9.78
2023-02-12T02:10:20.600Z,10.11
2023-02-12T02:13:13.209Z,10.25
2023-02-12T02:15:42.692Z,10.57
2023-02-12T02:18:20.686Z,10.75
2023-02-12T02:20:56.382Z,10.00
2023-02-12T02:24:00.659Z,10.44
2023-02-12T02:27:04.084Z,10.22
2023-02-12T02:29:51.652Z,10.72
2023-02-12T02:32:31.033Z,10.34
2023-02-12T02:35:05.299Z,11.18
2023-02-12T02:37:39.407Z,10.70
2023-02-12T02:40:13.841Z,10.99
2023-02-12T02:42:59.594Z,10.40
2023-02-12T02:45:37.669Z,10.60
2023-02-12T02:48:20.015Z,10.86
2023-02-12T02:50:52.514Z,9.73
2023-02-12T02:53:26.579Z,10.10
2023-02-12T02:55:57.308Z,9.91
2023-02-12T02:58:29.279Z,9.77
2023-02-12T03:01:02.017Z,10.31
2023-02-12T03:03:44.640Z,9.64
2023-02-12T03:06:19.251Z,11.02
2023-02-12T03:08:58.755Z,10.69
2023-02-12T03:11:31.432Z,9.88
2023-02-12T03:14:05.691Z,10.71
2023-02-12T03:16:37.525Z,10.32
2023-02-12T03:19:15.140Z,9.69
2023-02-12T03:21:48.427Z,9.83
2023-02-12T03:24:27.825Z,9.92
2023-02-12T03:27:02.661Z,10.25
2023-02-12T03:29:29.214Z,10.50
2023-02-12T03:32:04.277Z,10.19
2023-02-12T03:35:08.673Z,10.57
2023-02-12T03:37:40.507Z,10.59
2023-02-12T03:40:47.157Z,9.95
2023-02-12T03:43:29.247Z,10.50
2023-02-12T03:46:15.157Z,10.37
2023-02-12T03:49:01.282Z,10.15
2023-02-12T03:51:40.981Z,10.13
2023-02-12T03:54:11.802Z,10.63
2023-02-12T03:56:41.599Z,11.22
2023-02-12T03:59:08.329Z,11.07
2023-02-12T04:01:35.781Z,10.12
2023-02-12T04:04:05.238Z,10.44
2023-02-12T04:06:32.160Z,9.96
2023-02-12T04:09:03.037Z,10.78
2023-02-12T04:11:54.229Z,10.66
2023-02-12T04:14:29.209Z,10.34
2023-02-12T04:17:14.809Z,10.58
2023-02-12T04:20:10.397Z,10.64
2023-02-12T04:22:45.882Z,10.28
2023-02-12T04:25:30.104Z,10.50
2023-02-12T04:28:05.562Z,9.88
2023-02-12T04:30:45.531Z,10.30
2023-02-12T04:33:18.191Z,10.29
2023-02-12T04:36:16.601Z,10.87
2023-02-12T04:39:03.131Z,10.53
2023-02-12T04:41:30.937Z,10.54
2023-02-12T04:43:57.495Z,10.66
2023-02-12T04:46:23.950Z,10.43
2023-02-12T04:48:57.532Z,10.75
2023-02-12T04:51:24.019Z,10.68
2023-02-12T04:53:50.821Z,10.34
2023-02-12T04:56:17.682Z,10.75
2023-02-12T04:58:44.126Z,10.58
2023-02-12T05:01:10.923Z,10.76
2023-02-12T05:03:37.880Z,10.22
2023-02-12T05:06:08.931Z,9.81
2023-02-12T05:08:35.711Z,9.80
2023-02-12T05:11:09.721Z,9.64
2023-02-12T05:13:36.447Z,10.62
2023-02-12T05:16:07.809Z,10.81
2023-02-12T05:18:35.249Z,10.57
2023-02-12T05:21:03.780Z,11.14
2023-02-12T05:23:32.091Z,10.08
2023-02-12T05:26:00.302Z,9.94
2023-02-12T05:28:27.959Z,9.77
2023-02-12T05:30:54.536Z,9.81
2023-02-12T05:33:21.428Z,10.55
2023-02-12T05:35:47.847Z,10.98
2023-02-12T05:38:14.245Z,10.51
2023-02-12T05:40:41.008Z,10.55
2023-02-12T05:43:07.478Z,10.97
2023-02-12T05:45:33.992Z,11.33
2023-02-12T05:48:00.553Z,10.71
2023-02-12T05:50:26.962Z,10.49
2023-02-12T05:52:53.389Z,11.00
2023-02-12T05:55:19.808Z,10.77
2023-02-12T05:57:46.221Z,10.66
2023-02-12T06:00:13.351Z,10.84
2023-02-12T06:02:39.812Z,11.02
2023-02-12T06:05:06.544Z,11.18
2023-02-12T06:07:32.952Z,10.32
2023-02-12T06:09:59.383Z,10.48
2023-02-12T06:12:25.802Z,11.11
2023-02-12T06:14:52.310Z,11.28
2023-02-12T06:17:18.728Z,10.76
2023-02-12T06:19:45.165Z,10.98
2023-02-12T06:22:11.611Z,10.90
2023-02-12T06:24:38.061Z,11.13
2023-02-12T06:27:04.545Z,10.07
2023-02-12T06:29:30.952Z,10.73
2023-02-12T06:31:57.514Z,10.69
2023-02-12T06:34:24.024Z,10.28
2023-02-12T06:36:50.580Z,10.59
2023-02-12T06:39:17.938Z,10.41
2023-02-12T06:41:44.712Z,10.39
2023-02-12T06:44:12.799Z,10.33
2023-02-12T06:46:39.364Z,10.06
2023-02-12T06:49:05.989Z,10.36
2023-02-12T06:51:32.521Z,10.32
2023-02-12T06:53:58.961Z,10.08
2023-02-12T06:56:26.800Z,9.96
2023-02-12T06:58:58.384Z,10.45
2023-02-12T07:01:27.166Z,10.82
2023-02-12T07:03:59.899Z,11.20
2023-02-12T07:06:27.394Z,10.55
2023-02-12T07:08:55.009Z,10.57
2023-02-12T07:11:30.529Z,10.26
2023-02-12T07:13:57.100Z,10.40
2023-02-12T07:16:24.213Z,10.95
2023-02-12T07:18:50.885Z,10.85
2023-02-12T07:21:18.284Z,10.85
2023-02-12T07:23:51.378Z,10.12
2023-02-12T07:26:19.318Z,9.84
2023-02-12T07:28:45.806Z,10.21
2023-02-12T07:31:15.620Z,10.34
2023-02-12T07:33:42.898Z,10.64
2023-02-12T07:36:15.936Z,10.56
2023-02-12T07:38:42.931Z,10.67
2023-02-12T07:41:34.068Z,10.28
2023-02-12T07:44:10.139Z,10.17
2023-02-12T07:46:42.903Z,10.50
2023-02-12T07:49:13.898Z,10.32
2023-02-12T07:51:41.093Z,10.43
2023-02-12T07:54:07.561Z,10.31
2023-02-12T07:56:37.494Z,10.24
2023-02-12T07:59:07.146Z,10.22
2023-02-12T08:01:36.335Z,10.31
2023-02-12T08:04:09.043Z,10.14
2023-02-12T08:06:41.160Z,9.71
2023-02-12T08:09:10.094Z,10.15
2023-02-12T08:11:38.501Z,10.19
2023-02-12T08:14:05.693Z,10.29
2023-02-12T08:16:37.488Z,9.98
2023-02-12T08:19:16.172Z,9.85
2023-02-12T08:21:44.442Z,10.98
2023-02-12T08:24:11.852Z,10.39
2023-02-12T08:26:39.497Z,10.00
2023-02-12T08:29:12.026Z,10.58
2023-02-12T08:31:41.618Z,10.91
2023-02-12T08:34:21.846Z,10.53
2023-02-12T08:36:50.125Z,10.33
2023-02-12T08:39:18.218Z,10.82
2023-02-12T08:41:45.442Z,10.32
2023-02-12T08:44:12.873Z,10.43
2023-02-12T08:46:42.818Z,11.12
2023-02-12T08:49:13.986Z,10.55
2023-02-12T08:51:43.171Z,10.59
2023-02-12T08:54:14.489Z,10.93
2023-02-12T08:56:42.244Z,11.11
2023-02-12T08:59:08.804Z,10.51
2023-02-12T09:01:43.381Z,10.29
2023-02-12T09:04:21.997Z,10.93
2023-02-12T09:06:50.096Z,11.05
2023-02-12T09:09:16.882Z,10.25
2023-02-12T09:11:44.636Z,10.53
2023-02-12T09:14:14.128Z,11.15
2023-02-12T09:16:41.319Z,11.25
2023-02-12T09:19:08.930Z,10.87
2023-02-12T09:21:35.393Z,10.67
2023-02-12T09:24:03.418Z,11.36
2023-02-12T09:26:29.948Z,11.54
2023-02-12T09:28:56.551Z,11.26
2023-02-12T09:31:28.551Z,11.70
2023-02-12T09:33:59.217Z,11.32
2023-02-12T09:36:26.079Z,10.54
2023-02-12T09:38:54.137Z,10.88
2023-02-12T09:41:39.115Z,11.12
2023-02-12T09:44:22.387Z,11.50
2023-02-12T09:46:59.258Z,11.35
2023-02-12T09:50:05.912Z,11.13
2023-02-12T09:52:34.592Z,11.24
2023-02-12T09:55:01.573Z,11.13
2023-02-12T09:57:35.090Z,11.39
2023-02-12T10:00:11.913Z,11.05
2023-02-12T10:02:40.237Z,11.62
2023-02-12T10:05:18.884Z,11.39
2023-02-12T10:08:03.922Z,10.45
2023-02-12T10:10:42.724Z,10.57
2023-02-12T10:13:24.718Z,11.41
2023-02-12T10:15:55.223Z,10.90
2023-02-12T10:18:45.348Z,10.41
2023-02-12T10:21:39.493Z,11.00
2023-02-12T10:24:23.372Z,11.00
2023-02-12T10:26:54.255Z,10.72
2023-02-12T10:29:24.826Z,10.50
2023-02-12T10:34:33.903Z,10.06
2023-02-12T10:37:11.208Z,10.01
2023-02-12T10:39:44.525Z,11.28
2023-02-12T10:42:25.983Z,10.95
2023-02-12T10:44:52.548Z,10.66
2023-02-12T10:47:22.195Z,10.79
2023-02-12T10:50:02.015Z,10.92
2023-02-12T10:52:43.730Z,11.09
2023-02-12T10:55:33.903Z,11.24
2023-02-12T10:58:02.901Z,11.56
2023-02-12T11:00:31.734Z,11.67
2023-02-12T11:03:03.885Z,11.50
2023-02-12T11:05:34.250Z,11.52
2023-02-12T11:08:01.446Z,11.74
2023-02-12T11:10:28.145Z,11.07
2023-02-12T11:12:55.391Z,10.94
2023-02-12T11:15:31.216Z,11.20
2023-02-12T11:18:08.821Z,11.00
2023-02-12T11:20:41.271Z,11.63
2023-02-12T11:23:22.947Z,11.61
2023-02-12T11:26:04.319Z,12.03
2023-02-12T11:28:32.828Z,11.09
2023-02-12T11:31:01.066Z,10.74
2023-02-12T11:33:32.061Z,10.59
2023-02-12T11:36:07.251Z,11.13
2023-02-12T11:38:37.772Z,11.53
2023-02-12T11:41:17.390Z,11.01
2023-02-12T11:43:45.111Z,11.35
2023-02-12T11:46:22.567Z,10.87
2023-02-12T11:48:50.909Z,11.45
2023-02-12T11:51:29.739Z,11.64
2023-02-12T11:54:00.594Z,11.30
2023-02-12T11:56:42.754Z,11.59
2023-02-12T11:59:24.277Z,11.00
2023-02-12T12:01:55.165Z,11.27
2023-02-12T12:04:24.126Z,11.46
2023-02-12T12:07:11.606Z,10.56
2023-02-12T12:09:49.620Z,11.67
2023-02-12T12:12:23.322Z,11.24
2023-02-12T12:15:21.542Z,11.01
2023-02-12T12:18:22.498Z,11.27
2023-02-12T12:21:03.539Z,11.44
2023-02-12T12:23:41.637Z,12.01
2023-02-12T12:26:18.814Z,11.30
2023-02-12T12:28:59.009Z,11.59
2023-02-12T12:31:31.693Z,11.10
2023-02-12T12:34:04.100Z,11.40
2023-02-12T12:36:52.229Z,11.47
2023-02-12T12:39:56.044Z,12.34
2023-02-12T12:42:53.828Z,11.55
2023-02-12T12:45:32.410Z,10.56
2023-02-12T12:48:20.381Z,11.27
2023-02-12T12:51:02.348Z,11.61
2023-02-12T12:53:43.188Z,12.03
2023-02-12T12:56:21.890Z,12.04
2023-02-12T12:59:25.984Z,12.22
2023-02-12T13:02:00.225Z,11.61
2023-02-12T13:04:26.687Z,12.58
2023-02-12T13:07:32.706Z,12.71
2023-02-12T13:10:26.538Z,12.46
2023-02-12T13:13:11.752Z,12.78
2023-02-12T13:15:52.797Z,12.49
2023-02-12T13:18:19.205Z,12.56
2023-02-12T13:20:54.612Z,12.52
2023-02-12T13:23:46.007Z,12.14
2023-02-12T13:26:35.732Z,11.98
2023-02-12T13:29:12.030Z,12.20
2023-02-12T13:31:47.742Z,11.89
2023-02-12T13:34:17.566Z,12.08
2023-02-12T13:36:45.559Z,11.55
2023-02-12T13:39:22.678Z,11.72
2023-02-12T13:42:02.218Z,12.29
2023-02-12T13:44:36.306Z,12.04
2023-02-12T13:47:09.582Z,12.03
2023-02-12T13:49:52.319Z,11.94
2023-02-12T13:52:47.911Z,12.50
2023-02-12T13:55:46.473Z,12.98
2023-02-12T13:58:31.796Z,12.77
2023-02-12T14:01:12.867Z,12.50
2023-02-12T14:03:40.099Z,12.63
2023-02-12T14:06:12.330Z,12.33
2023-02-12T14:08:42.244Z,12.62
2023-02-12T14:11:19.184Z,12.21
2023-02-12T14:14:00.453Z,12.71
2023-02-12T14:16:29.989Z,12.73
2023-02-12T14:19:34.195Z,11.99
2023-02-12T14:22:01.648Z,12.25
2023-02-12T14:24:37.271Z,13.01
2023-02-12T14:27:21.449Z,12.34
2023-02-12T14:30:04.535Z,11.98
2023-02-12T14:32:58.093Z,12.81
2023-02-12T14:35:38.098Z,12.34
2023-02-12T14:38:27.847Z,12.98
2023-02-12T14:41:33.994Z,13.20
2023-02-12T14:44:20.428Z,12.20
2023-02-12T14:46:49.457Z,12.31
2023-02-12T14:49:24.964Z,12.48
2023-02-12T14:52:05.116Z,12.27
2023-02-12T14:54:36.942Z,12.69
2023-02-12T14:57:09.755Z,12.42
2023-02-12T14:59:41.498Z,12.38
2023-02-12T15:02:15.262Z,12.39
2023-02-12T15:04:45.275Z,12.37
2023-02-12T15:07:21.677Z,12.73
2023-02-12T15:09:55.898Z,12.71
2023-02-12T15:12:26.727Z,12.07
2023-02-12T15:14:59.513Z,12.51
2023-02-12T15:17:30.871Z,12.02
2023-02-12T15:20:13.236Z,12.74
2023-02-12T15:22:40.849Z,13.20
2023-02-12T15:25:26.866Z,12.58
2023-02-12T15:28:00.639Z,12.33
2023-02-12T15:30:30.951Z,12.27
2023-02-12T15:33:00.331Z,11.82
2023-02-12T15:35:29.326Z,12.36
2023-02-12T15:37:57.274Z,12.95
2023-02-12T15:40:24.109Z,12.42
2023-02-12T15:43:04.758Z,12.36
2023-02-12T15:45:33.921Z,12.36
2023-02-12T15:48:05.201Z,12.84
2023-02-12T15:50:33.130Z,12.69
2023-02-12T15:53:00.080Z,12.51
2023-02-12T15:55:30.458Z,12.39
2023-02-12T15:58:00.323Z,11.71
2023-02-12T16:00:39.448Z,12.12
2023-02-12T16:03:05.977Z,12.51
2023-02-12T16:05:35.068Z,12.46
2023-02-12T16:08:02.023Z,12.27
2023-02-12T16:10:28.904Z,12.62
2023-02-12T16:12:57.634Z,12.99
2023-02-12T16:15:34.432Z,12.52
2023-02-12T16:18:04.079Z,11.91
2023-02-12T16:20:31.514Z,12.43
2023-02-12T16:22:59.253Z,12.19
2023-02-12T16:25:28.108Z,12.68
2023-02-12T16:28:18.699Z,12.63
2023-02-12T16:30:48.280Z,12.17
2023-02-12T16:33:53.115Z,11.86
2023-02-12T16:36:19.519Z,10.99
2023-02-12T16:39:00.456Z,11.52
2023-02-12T16:41:32.827Z,10.93
2023-02-12T16:44:02.337Z,11.58
2023-02-12T16:46:31.386Z,11.42
2023-02-12T16:49:00.731Z,11.00
2023-02-12T16:51:27.417Z,11.98
2023-02-12T16:53:57.475Z,11.52
2023-02-12T16:56:27.555Z,11.98
2023-02-12T16:58:58.054Z,11.73
2023-02-12T17:01:33.438Z,10.77
2023-02-12T17:04:02.097Z,11.18
2023-02-12T17:06:30.668Z,10.96
2023-02-12T17:08:57.749Z,11.81
2023-02-12T17:11:26.803Z,11.38
2023-02-12T17:13:55.469Z,11.47
2023-02-12T17:16:30.665Z,11.58
2023-02-12T17:18:59.129Z,12.21
2023-02-12T17:21:38.073Z,11.66
2023-02-12T17:24:15.028Z,11.87
2023-02-12T17:26:41.495Z,11.74
2023-02-12T17:29:07.887Z,12.02
2023-02-12T17:31:36.550Z,11.89
2023-02-12T17:34:04.500Z,11.30
2023-02-12T17:36:30.926Z,11.49
2023-02-12T17:38:57.352Z,10.94
2023-02-12T17:41:24.444Z,10.90
2023-02-12T17:43:50.930Z,10.54
2023-02-12T17:46:20.548Z,11.50
2023-02-12T17:48:47.215Z,11.65
2023-02-12T17:51:14.471Z,11.19
2023-02-12T17:53:41.637Z,11.51
2023-02-12T17:56:12.647Z,10.90
2023-02-12T17:58:40.363Z,11.38
2023-02-12T18:01:09.041Z,11.11
2023-02-12T18:03:35.773Z,11.24
2023-02-12T18:06:02.432Z,11.10
2023-02-12T18:08:29.141Z,11.81
2023-02-12T18:10:56.558Z,11.10
2023-02-12T18:13:23.660Z,11.11
2023-02-12T18:15:52.206Z,10.85
2023-02-12T18:18:18.819Z,11.39
2023-02-12T18:20:45.317Z,10.84
2023-02-12T18:23:11.976Z,11.61
2023-02-12T18:25:43.188Z,10.65
2023-02-12T18:28:11.162Z,11.50
2023-02-12T18:30:38.964Z,11.44
2023-02-12T18:33:06.159Z,11.26
2023-02-12T18:35:33.636Z,10.74
2023-02-12T18:38:00.089Z,11.03
2023-02-12T18:40:26.561Z,10.86
2023-02-12T18:42:53.000Z,11.36
2023-02-12T18:45:19.540Z,11.68
2023-02-12T18:47:46.047Z,11.31
2023-02-12T18:50:12.503Z,11.38
2023-02-12T18:52:38.902Z,11.35
2023-02-12T18:55:06.823Z,11.26
2023-02-12T18:57:33.320Z,10.95
2023-02-12T18:59:59.848Z,11.16
2023-02-12T19:02:26.355Z,11.21
2023-02-12T19:04:52.883Z,11.33
2023-02-12T19:07:19.311Z,10.63
2023-02-12T19:09:45.840Z,10.74
2023-02-12T19:12:12.285Z,11.03
2023-02-12T19:14:38.770Z,11.63
2023-02-12T19:17:05.219Z,11.77
2023-02-12T19:19:31.645Z,11.78
2023-02-12T19:21:58.087Z,11.86
2023-02-12T19:24:24.578Z,11.65
2023-02-12T19:26:52.796Z,11.83
2023-02-12T19:29:19.328Z,11.69
2023-02-12T19:31:46.621Z,11.65
2023-02-12T19:34:19.990Z,11.87
2023-02-12T19:36:47.450Z,11.41
2023-02-12T19:39:16.603Z,11.67
2023-02-12T19:41:43.483Z,11.86
2023-02-12T19:44:13.055Z,11.45
2023-02-12T19:46:40.538Z,11.86
2023-02-12T19:49:08.206Z,11.87
2023-02-12T19:51:34.732Z,11.98
2023-02-12T19:54:04.095Z,11.35
2023-02-12T19:56:31.220Z,11.83
2023-02-12T19:58:58.335Z,11.94
2023-02-12T20:01:27.194Z,11.81
2023-02-12T20:03:54.547Z,11.68
2023-02-12T20:06:28.119Z,11.89
2023-02-12T20:08:54.947Z,11.77
2023-02-12T20:11:28.685Z,11.87
2023-02-12T20:13:55.663Z,11.68
2023-02-12T20:16:25.977Z,11.71
2023-02-12T20:18:54.620Z,11.33
2023-02-12T20:21:24.686Z,11.43
2023-02-12T20:23:51.688Z,11.26
2023-02-12T20:26:19.814Z,11.33
2023-02-12T20:28:47.378Z,11.49
2023-02-12T20:31:22.379Z,11.59
2023-02-12T20:33:54.024Z,11.73
2023-02-12T20:36:20.475Z,11.81
2023-02-12T20:38:51.701Z,11.84
2023-02-12T20:41:18.195Z,11.74
2023-02-12T20:43:44.647Z,11.67
2023-02-12T20:46:14.939Z,11.75
2023-02-12T20:48:42.107Z,11.43
2023-02-12T20:51:12.483Z,11.67
2023-02-12T20:53:39.461Z,11.73
2023-02-12T20:56:14.742Z,11.73
2023-02-12T20:58:44.683Z,11.49
2023-02-12T21:01:14.005Z,11.62
2023-02-12T21:03:41.366Z,11.73
2023-02-12T21:06:07.895Z,11.77
2023-02-12T21:08:38.682Z,11.19
2023-02-12T21:11:12.930Z,11.10
2023-02-12T21:13:39.365Z,11.17
2023-02-12T21:16:12.446Z,10.97
2023-02-12T21:18:39.314Z,11.21
2023-02-12T21:21:10.047Z,11.56
2023-02-12T21:23:36.907Z,11.48
2023-02-12T21:26:09.109Z,11.24
2023-02-12T21:28:36.447Z,11.67
2023-02-12T21:31:10.422Z,11.74
2023-02-12T21:33:38.656Z,11.55
2023-02-12T21:36:07.862Z,11.62
2023-02-12T21:38:37.897Z,11.63
2023-02-12T21:41:14.158Z,11.66
2023-02-12T21:43:42.403Z,11.23
2023-02-12T21:46:09.884Z,11.41
2023-02-12T21:48:38.930Z,11.66
2023-02-12T21:51:06.094Z,11.60
2023-02-12T21:53:32.889Z,11.74
2023-02-12T21:56:03.958Z,11.45
2023-02-12T21:58:30.411Z,11.16
2023-02-12T22:00:57.131Z,10.92
2023-02-12T22:03:23.762Z,11.19
2023-02-12T22:05:50.707Z,11.33
2023-02-12T22:08:17.180Z,11.29
2023-02-12T22:10:43.657Z,11.39
2023-02-12T22:13:10.034Z,11.46
2023-02-12T22:15:36.587Z,11.67
2023-02-12T22:18:03.070Z,11.08
2023-02-12T22:20:29.500Z,11.46
2023-02-12T22:22:55.993Z,11.21
2023-02-12T22:25:22.557Z,11.39
2023-02-12T22:27:49.034Z,11.19
2023-02-12T22:30:16.591Z,11.57
2023-02-12T22:32:43.069Z,11.24
2023-02-12T22:35:09.610Z,11.40
2023-02-12T22:37:39.148Z,11.41
2023-02-12T22:40:08.304Z,11.00
2023-02-12T22:42:34.726Z,11.22
2023-02-12T22:45:01.202Z,11.37
2023-02-12T22:47:31.883Z,11.18
2023-02-12T22:49:59.645Z,11.28
2023-02-12T22:52:27.001Z,11.06
2023-02-12T22:54:54.060Z,11.35
2023-02-12T22:57:20.755Z,11.44
2023-02-12T22:59:49.121Z,11.40
2023-02-12T23:02:15.771Z,11.09
2023-02-12T23:04:42.317Z,11.45
2023-02-12T23:07:08.702Z,11.32
2023-02-12T23:09:35.099Z,11.42
2023-02-12T23:12:01.631Z,11.53
2023-02-12T23:14:28.130Z,11.55
2023-02-12T23:16:54.594Z,11.20
2023-02-12T23:19:21.206Z,11.34
2023-02-12T23:21:47.686Z,11.55
2023-02-12T23:24:14.842Z,11.56
2023-02-12T23:26:41.454Z,11.46
2023-02-12T23:29:08.195Z,11.32
2023-02-12T23:31:34.764Z,11.48
2023-02-12T23:34:01.318Z,11.14
2023-02-12T23:36:28.254Z,11.40
2023-02-12T23:38:54.911Z,11.52
2023-02-12T23:41:21.401Z,11.18
2023-02-12T23:43:47.841Z,11.05
2023-02-12T23:46:14.327Z,11.38
2023-02-12T23:48:41.194Z,11.45
2023-02-12T23:51:07.762Z,11.24
2023-02-12T23:53:34.266Z,11.06
2023-02-12T23:56:00.749Z,11.36
2023-02-12T23:58:27.243Z,11.43
